sensor_id;sensor_type;location;lat;lon;timestamp;temperature;humidity
15296;DHT22;7749;49.964;7.890;2022-09-27T00:01:11;11.60;99.90
15296;DHT22;7749;49.964;7.890;2022-09-27T00:03:39;11.60;99.90
15296;DHT22;7749;49.964;7.890;2022-09-27T00:08:38;11.50;99.90
15296;DHT22;7749;49.964;7.890;2022-09-27T00:11:11;11.50;99.90
15296;DHT22;7749;49.964;7.890;2022-09-27T00:13:40;11.50;99.90
15296;DHT22;7749;49.964;7.890;2022-09-27T00:16:09;11.50;99.90
15296;DHT22;7749;49.964;7.890;2022-09-27T00:18:36;11.50;99.90
15296;DHT22;7749;49.964;7.890;2022-09-27T00:21:06;11.50;99.90
15296;DHT22;7749;49.964;7.890;2022-09-27T00:23:34;11.50;99.90
15296;DHT22;7749;49.964;7.890;2022-09-27T00:26:02;11.50;99.90
15296;DHT22;7749;49.964;7.890;2022-09-27T00:28:30;11.50;99.90
15296;DHT22;7749;49.964;7.890;2022-09-27T00:30:58;11.50;99.90
15296;DHT22;7749;49.964;7.890;2022-09-27T00:33:26;11.50;99.90
15296;DHT22;7749;49.964;7.890;2022-09-27T00:35:54;11.50;99.90
15296;DHT22;7749;49.964;7.890;2022-09-27T00:38:22;11.50;99.90
15296;DHT22;7749;49.964;7.890;2022-09-27T00:40:50;11.50;99.90
15296;DHT22;7749;49.964;7.890;2022-09-27T00:43:20;11.40;99.90
15296;DHT22;7749;49.964;7.890;2022-09-27T00:46:01;11.50;99.90
15296;DHT22;7749;49.964;7.890;2022-09-27T00:48:31;11.50;99.90
15296;DHT22;7749;49.964;7.890;2022-09-27T00:51:03;11.50;99.90
15296;DHT22;7749;49.964;7.890;2022-09-27T00:53:36;11.50;99.90
15296;DHT22;7749;49.964;7.890;2022-09-27T00:56:09;11.40;99.90
15296;DHT22;7749;49.964;7.890;2022-09-27T00:58:42;11.40;99.90
15296;DHT22;7749;49.964;7.890;2022-09-27T01:01:11;11.40;99.90
15296;DHT22;7749;49.964;7.890;2022-09-27T01:04:05;11.30;99.90
15296;DHT22;7749;49.964;7.890;2022-09-27T01:06:34;11.40;99.90
15296;DHT22;7749;49.964;7.890;2022-09-27T01:09:02;11.30;99.90
15296;DHT22;7749;49.964;7.890;2022-09-27T01:11:38;11.30;99.90
15296;DHT22;7749;49.964;7.890;2022-09-27T01:17:34;11.30;99.90
15296;DHT22;7749;49.964;7.890;2022-09-27T01:20:28;11.30;99.90
15296;DHT22;7749;49.964;7.890;2022-09-27T01:26:14;11.30;99.90
15296;DHT22;7749;49.964;7.890;2022-09-27T01:28:57;11.40;99.90
15296;DHT22;7749;49.964;7.890;2022-09-27T01:31:45;11.40;99.90
15296;DHT22;7749;49.964;7.890;2022-09-27T01:34:43;11.40;99.90
15296;DHT22;7749;49.964;7.890;2022-09-27T01:42:46;11.40;99.90
15296;DHT22;7749;49.964;7.890;2022-09-27T01:45:28;11.40;99.90
15296;DHT22;7749;49.964;7.890;2022-09-27T01:49:03;11.40;99.90
15296;DHT22;7749;49.964;7.890;2022-09-27T01:51:13;11.50;99.90
15296;DHT22;7749;49.964;7.890;2022-09-27T01:53:46;11.50;99.90
15296;DHT22;7749;49.964;7.890;2022-09-27T01:56:23;11.50;99.90
15296;DHT22;7749;49.964;7.890;2022-09-27T01:58:57;11.50;99.90
15296;DHT22;7749;49.964;7.890;2022-09-27T02:01:27;11.50;99.90
15296;DHT22;7749;49.964;7.890;2022-09-27T02:03:57;11.40;99.90
15296;DHT22;7749;49.964;7.890;2022-09-27T02:06:37;11.50;99.90
15296;DHT22;7749;49.964;7.890;2022-09-27T02:09:15;11.50;99.90
15296;DHT22;7749;49.964;7.890;2022-09-27T02:11:48;11.50;99.90
15296;DHT22;7749;49.964;7.890;2022-09-27T02:14:32;11.50;99.90
15296;DHT22;7749;49.964;7.890;2022-09-27T02:20:10;11.50;99.90
15296;DHT22;7749;49.964;7.890;2022-09-27T02:22:54;11.40;99.90
15296;DHT22;7749;49.964;7.890;2022-09-27T02:25:37;11.40;99.90
15296;DHT22;7749;49.964;7.890;2022-09-27T02:30:45;11.30;99.90
15296;DHT22;7749;49.964;7.890;2022-09-27T02:33:13;11.20;99.90
15296;DHT22;7749;49.964;7.890;2022-09-27T02:35:41;11.20;99.90
15296;DHT22;7749;49.964;7.890;2022-09-27T02:38:09;11.20;99.90
15296;DHT22;7749;49.964;7.890;2022-09-27T02:40:46;11.20;99.90
15296;DHT22;7749;49.964;7.890;2022-09-27T02:43:16;11.10;99.90
15296;DHT22;7749;49.964;7.890;2022-09-27T02:49:16;11.10;99.90
15296;DHT22;7749;49.964;7.890;2022-09-27T02:59:50;10.80;99.90
15296;DHT22;7749;49.964;7.890;2022-09-27T03:05:20;10.80;99.90
15296;DHT22;7749;49.964;7.890;2022-09-27T03:07:50;10.70;99.90
15296;DHT22;7749;49.964;7.890;2022-09-27T03:10:23;10.70;99.90
15296;DHT22;7749;49.964;7.890;2022-09-27T03:12:51;10.60;99.90
15296;DHT22;7749;49.964;7.890;2022-09-27T03:15:20;10.60;99.90
15296;DHT22;7749;49.964;7.890;2022-09-27T03:17:48;10.50;99.90
15296;DHT22;7749;49.964;7.890;2022-09-27T03:20:16;10.50;99.90
15296;DHT22;7749;49.964;7.890;2022-09-27T03:22:44;10.40;99.90
15296;DHT22;7749;49.964;7.890;2022-09-27T03:25:13;10.30;99.90
15296;DHT22;7749;49.964;7.890;2022-09-27T03:27:42;10.30;99.90
15296;DHT22;7749;49.964;7.890;2022-09-27T03:30:11;10.20;99.90
15296;DHT22;7749;49.964;7.890;2022-09-27T03:32:44;10.20;99.90
15296;DHT22;7749;49.964;7.890;2022-09-27T03:35:12;10.20;99.90
15296;DHT22;7749;49.964;7.890;2022-09-27T03:37:40;10.10;99.90
15296;DHT22;7749;49.964;7.890;2022-09-27T03:40:08;10.10;99.90
15296;DHT22;7749;49.964;7.890;2022-09-27T03:42:37;10.10;99.90
15296;DHT22;7749;49.964;7.890;2022-09-27T03:45:05;10.10;99.90
15296;DHT22;7749;49.964;7.890;2022-09-27T03:47:33;10.10;99.90
15296;DHT22;7749;49.964;7.890;2022-09-27T03:50:01;10.10;99.90
15296;DHT22;7749;49.964;7.890;2022-09-27T03:52:28;10.10;99.90
15296;DHT22;7749;49.964;7.890;2022-09-27T03:54:56;10.10;99.90
15296;DHT22;7749;49.964;7.890;2022-09-27T03:57:28;10.10;99.90
15296;DHT22;7749;49.964;7.890;2022-09-27T03:59:57;10.10;99.90
15296;DHT22;7749;49.964;7.890;2022-09-27T04:02:27;10.10;99.90
15296;DHT22;7749;49.964;7.890;2022-09-27T04:04:54;10.20;99.90
15296;DHT22;7749;49.964;7.890;2022-09-27T04:07:22;10.20;99.90
15296;DHT22;7749;49.964;7.890;2022-09-27T04:09:50;10.10;99.90
15296;DHT22;7749;49.964;7.890;2022-09-27T04:12:17;10.20;99.90
15296;DHT22;7749;49.964;7.890;2022-09-27T04:14:45;10.20;99.90
15296;DHT22;7749;49.964;7.890;2022-09-27T04:17:13;10.20;99.90
15296;DHT22;7749;49.964;7.890;2022-09-27T04:19:41;10.10;99.90
15296;DHT22;7749;49.964;7.890;2022-09-27T04:22:08;10.10;99.90
15296;DHT22;7749;49.964;7.890;2022-09-27T04:24:36;10.10;99.90
15296;DHT22;7749;49.964;7.890;2022-09-27T04:27:04;10.20;99.90
15296;DHT22;7749;49.964;7.890;2022-09-27T04:29:31;10.20;99.90
15296;DHT22;7749;49.964;7.890;2022-09-27T04:31:59;10.20;99.90
15296;DHT22;7749;49.964;7.890;2022-09-27T04:34:27;10.20;99.90
15296;DHT22;7749;49.964;7.890;2022-09-27T04:37:16;10.20;99.90
15296;DHT22;7749;49.964;7.890;2022-09-27T04:39:44;10.20;99.90
15296;DHT22;7749;49.964;7.890;2022-09-27T04:42:11;10.20;99.90
15296;DHT22;7749;49.964;7.890;2022-09-27T04:44:39;10.20;99.90
15296;DHT22;7749;49.964;7.890;2022-09-27T04:47:07;10.30;99.90
15296;DHT22;7749;49.964;7.890;2022-09-27T04:49:35;10.20;99.90
15296;DHT22;7749;49.964;7.890;2022-09-27T04:52:03;10.20;99.90
15296;DHT22;7749;49.964;7.890;2022-09-27T04:54:31;10.30;99.90
15296;DHT22;7749;49.964;7.890;2022-09-27T04:56:59;10.30;99.90
15296;DHT22;7749;49.964;7.890;2022-09-27T04:59:27;10.30;99.90
15296;DHT22;7749;49.964;7.890;2022-09-27T05:01:54;10.40;99.90
15296;DHT22;7749;49.964;7.890;2022-09-27T05:04:22;10.40;99.90
15296;DHT22;7749;49.964;7.890;2022-09-27T05:06:50;10.30;99.90
15296;DHT22;7749;49.964;7.890;2022-09-27T05:09:23;10.40;99.90
15296;DHT22;7749;49.964;7.890;2022-09-27T05:11:51;10.30;99.90
15296;DHT22;7749;49.964;7.890;2022-09-27T05:14:18;10.30;99.90
15296;DHT22;7749;49.964;7.890;2022-09-27T05:16:47;10.30;99.90
15296;DHT22;7749;49.964;7.890;2022-09-27T05:19:14;10.20;99.90
15296;DHT22;7749;49.964;7.890;2022-09-27T05:25:08;10.20;99.90
15296;DHT22;7749;49.964;7.890;2022-09-27T05:27:45;10.20;99.90
15296;DHT22;7749;49.964;7.890;2022-09-27T05:30:13;10.30;99.90
15296;DHT22;7749;49.964;7.890;2022-09-27T05:32:58;10.30;99.90
15296;DHT22;7749;49.964;7.890;2022-09-27T05:35:25;10.30;99.90
15296;DHT22;7749;49.964;7.890;2022-09-27T05:37:58;10.30;99.90
15296;DHT22;7749;49.964;7.890;2022-09-27T05:40:27;10.40;99.90
15296;DHT22;7749;49.964;7.890;2022-09-27T05:43:08;10.40;99.90
15296;DHT22;7749;49.964;7.890;2022-09-27T05:45:43;10.50;99.90
15296;DHT22;7749;49.964;7.890;2022-09-27T05:48:11;10.50;99.90
15296;DHT22;7749;49.964;7.890;2022-09-27T05:50:40;10.50;99.90
15296;DHT22;7749;49.964;7.890;2022-09-27T05:53:09;10.60;99.90
15296;DHT22;7749;49.964;7.890;2022-09-27T05:55:36;10.60;99.90
15296;DHT22;7749;49.964;7.890;2022-09-27T05:58:06;10.60;99.90
15296;DHT22;7749;49.964;7.890;2022-09-27T06:00:35;10.60;99.90
15296;DHT22;7749;49.964;7.890;2022-09-27T06:03:04;10.70;99.90
15296;DHT22;7749;49.964;7.890;2022-09-27T06:05:37;10.60;99.90
15296;DHT22;7749;49.964;7.890;2022-09-27T06:08:08;10.70;99.90
15296;DHT22;7749;49.964;7.890;2022-09-27T06:10:36;10.70;99.90
15296;DHT22;7749;49.964;7.890;2022-09-27T06:13:06;10.70;99.90
15296;DHT22;7749;49.964;7.890;2022-09-27T06:15:35;10.70;99.90
15296;DHT22;7749;49.964;7.890;2022-09-27T06:18:16;10.60;99.90
15296;DHT22;7749;49.964;7.890;2022-09-27T06:20:45;10.60;99.90
15296;DHT22;7749;49.964;7.890;2022-09-27T06:23:15;10.60;99.90
15296;DHT22;7749;49.964;7.890;2022-09-27T06:25:45;10.70;99.90
15296;DHT22;7749;49.964;7.890;2022-09-27T06:28:16;10.70;99.90
15296;DHT22;7749;49.964;7.890;2022-09-27T06:30:46;10.70;99.90
15296;DHT22;7749;49.964;7.890;2022-09-27T06:33:17;10.70;99.90
15296;DHT22;7749;49.964;7.890;2022-09-27T06:35:46;10.70;99.90
15296;DHT22;7749;49.964;7.890;2022-09-27T06:38:16;10.70;99.90
15296;DHT22;7749;49.964;7.890;2022-09-27T06:40:44;10.60;99.90
15296;DHT22;7749;49.964;7.890;2022-09-27T06:43:17;10.60;99.90
15296;DHT22;7749;49.964;7.890;2022-09-27T06:45:47;10.60;99.90
15296;DHT22;7749;49.964;7.890;2022-09-27T06:48:15;10.70;99.90
15296;DHT22;7749;49.964;7.890;2022-09-27T06:50:45;10.80;99.90
15296;DHT22;7749;49.964;7.890;2022-09-27T06:53:14;10.80;99.90
15296;DHT22;7749;49.964;7.890;2022-09-27T06:55:42;10.80;99.90
15296;DHT22;7749;49.964;7.890;2022-09-27T06:58:10;10.80;99.90
15296;DHT22;7749;49.964;7.890;2022-09-27T07:00:57;10.90;99.90
15296;DHT22;7749;49.964;7.890;2022-09-27T07:03:25;10.90;99.90
15296;DHT22;7749;49.964;7.890;2022-09-27T07:06:04;11.00;99.90
15296;DHT22;7749;49.964;7.890;2022-09-27T07:08:32;11.00;99.90
15296;DHT22;7749;49.964;7.890;2022-09-27T07:11:06;11.00;99.90
15296;DHT22;7749;49.964;7.890;2022-09-27T07:13:34;10.90;99.90
15296;DHT22;7749;49.964;7.890;2022-09-27T07:16:06;11.00;99.90
15296;DHT22;7749;49.964;7.890;2022-09-27T07:18:38;11.10;99.90
15296;DHT22;7749;49.964;7.890;2022-09-27T07:21:06;11.10;99.90
15296;DHT22;7749;49.964;7.890;2022-09-27T07:23:35;11.10;99.90
15296;DHT22;7749;49.964;7.890;2022-09-27T07:26:04;11.10;99.90
15296;DHT22;7749;49.964;7.890;2022-09-27T07:28:34;11.30;99.90
15296;DHT22;7749;49.964;7.890;2022-09-27T07:31:02;11.20;99.90
15296;DHT22;7749;49.964;7.890;2022-09-27T07:33:31;11.10;99.90
15296;DHT22;7749;49.964;7.890;2022-09-27T07:35:59;11.10;99.90
15296;DHT22;7749;49.964;7.890;2022-09-27T07:38:26;11.20;99.90
15296;DHT22;7749;49.964;7.890;2022-09-27T07:40:54;11.30;99.90
15296;DHT22;7749;49.964;7.890;2022-09-27T07:43:22;11.50;99.90
15296;DHT22;7749;49.964;7.890;2022-09-27T07:45:49;11.60;99.90
15296;DHT22;7749;49.964;7.890;2022-09-27T07:48:17;11.70;99.90
15296;DHT22;7749;49.964;7.890;2022-09-27T07:50:45;11.80;99.90
15296;DHT22;7749;49.964;7.890;2022-09-27T07:53:14;12.00;99.90
15296;DHT22;7749;49.964;7.890;2022-09-27T07:55:42;11.90;99.90
15296;DHT22;7749;49.964;7.890;2022-09-27T07:58:11;12.10;99.90
15296;DHT22;7749;49.964;7.890;2022-09-27T08:00:39;12.10;99.90
15296;DHT22;7749;49.964;7.890;2022-09-27T08:03:10;12.20;99.90
15296;DHT22;7749;49.964;7.890;2022-09-27T08:05:44;12.20;99.90
15296;DHT22;7749;49.964;7.890;2022-09-27T08:08:12;12.20;99.90
15296;DHT22;7749;49.964;7.890;2022-09-27T08:10:40;12.10;99.90
15296;DHT22;7749;49.964;7.890;2022-09-27T08:13:15;12.20;99.90
15296;DHT22;7749;49.964;7.890;2022-09-27T08:15:46;12.20;99.90
15296;DHT22;7749;49.964;7.890;2022-09-27T08:18:15;12.00;99.90
15296;DHT22;7749;49.964;7.890;2022-09-27T08:20:43;11.90;99.90
15296;DHT22;7749;49.964;7.890;2022-09-27T08:23:11;12.00;99.90
15296;DHT22;7749;49.964;7.890;2022-09-27T08:25:39;12.00;99.90
15296;DHT22;7749;49.964;7.890;2022-09-27T08:28:08;12.20;99.90
15296;DHT22;7749;49.964;7.890;2022-09-27T08:30:36;12.30;99.90
15296;DHT22;7749;49.964;7.890;2022-09-27T08:33:04;12.40;99.90
15296;DHT22;7749;49.964;7.890;2022-09-27T08:35:32;12.50;99.90
15296;DHT22;7749;49.964;7.890;2022-09-27T08:38:02;12.60;99.90
15296;DHT22;7749;49.964;7.890;2022-09-27T08:40:53;12.60;99.90
15296;DHT22;7749;49.964;7.890;2022-09-27T08:49:30;12.90;99.90
15296;DHT22;7749;49.964;7.890;2022-09-27T08:52:00;13.10;99.90
15296;DHT22;7749;49.964;7.890;2022-09-27T08:54:30;13.10;99.90
15296;DHT22;7749;49.964;7.890;2022-09-27T08:57:10;13.20;99.90
15296;DHT22;7749;49.964;7.890;2022-09-27T08:59:42;13.20;99.90
15296;DHT22;7749;49.964;7.890;2022-09-27T09:02:20;13.40;99.90
15296;DHT22;7749;49.964;7.890;2022-09-27T09:04:55;13.60;99.90
15296;DHT22;7749;49.964;7.890;2022-09-27T09:16:09;14.20;99.90
15296;DHT22;7749;49.964;7.890;2022-09-27T09:18:49;14.50;99.90
15296;DHT22;7749;49.964;7.890;2022-09-27T09:30:24;14.00;99.90
15296;DHT22;7749;49.964;7.890;2022-09-27T09:38:41;14.50;99.90
15296;DHT22;7749;49.964;7.890;2022-09-27T09:41:27;14.60;99.90
15296;DHT22;7749;49.964;7.890;2022-09-27T09:44:09;14.70;99.90
15296;DHT22;7749;49.964;7.890;2022-09-27T09:46:45;14.80;99.90
15296;DHT22;7749;49.964;7.890;2022-09-27T09:52:16;14.40;99.90
15296;DHT22;7749;49.964;7.890;2022-09-27T09:54:57;14.40;99.90
15296;DHT22;7749;49.964;7.890;2022-09-27T10:00:18;14.70;99.90
15296;DHT22;7749;49.964;7.890;2022-09-27T10:02:46;15.20;99.90
15296;DHT22;7749;49.964;7.890;2022-09-27T10:05:23;15.40;99.90
15296;DHT22;7749;49.964;7.890;2022-09-27T10:07:53;14.90;99.90
15296;DHT22;7749;49.964;7.890;2022-09-27T10:10:24;14.70;99.90
15296;DHT22;7749;49.964;7.890;2022-09-27T10:12:51;14.50;99.90
15296;DHT22;7749;49.964;7.890;2022-09-27T10:15:22;14.10;99.90
15296;DHT22;7749;49.964;7.890;2022-09-27T10:17:56;14.10;99.90
15296;DHT22;7749;49.964;7.890;2022-09-27T10:23:13;15.10;99.90
15296;DHT22;7749;49.964;7.890;2022-09-27T10:26:00;15.10;99.90
15296;DHT22;7749;49.964;7.890;2022-09-27T10:28:51;14.70;99.90
15296;DHT22;7749;49.964;7.890;2022-09-27T10:31:19;14.10;99.90
15296;DHT22;7749;49.964;7.890;2022-09-27T10:33:57;13.90;99.90
15296;DHT22;7749;49.964;7.890;2022-09-27T10:36:28;13.80;99.90
15296;DHT22;7749;49.964;7.890;2022-09-27T10:39:02;13.90;99.90
15296;DHT22;7749;49.964;7.890;2022-09-27T10:41:39;14.10;99.90
15296;DHT22;7749;49.964;7.890;2022-09-27T10:44:25;14.40;99.90
15296;DHT22;7749;49.964;7.890;2022-09-27T10:46:55;14.30;99.90
15296;DHT22;7749;49.964;7.890;2022-09-27T10:49:27;14.10;99.90
15296;DHT22;7749;49.964;7.890;2022-09-27T10:52:05;14.60;99.90
15296;DHT22;7749;49.964;7.890;2022-09-27T10:54:36;14.20;99.90
15296;DHT22;7749;49.964;7.890;2022-09-27T10:57:05;14.00;99.90
15296;DHT22;7749;49.964;7.890;2022-09-27T10:59:35;14.10;99.90
15296;DHT22;7749;49.964;7.890;2022-09-27T11:02:26;14.50;99.90
15296;DHT22;7749;49.964;7.890;2022-09-27T11:07:56;15.30;99.90
15296;DHT22;7749;49.964;7.890;2022-09-27T11:10:34;15.80;99.90
15296;DHT22;7749;49.964;7.890;2022-09-27T11:13:11;15.60;99.90
15296;DHT22;7749;49.964;7.890;2022-09-27T11:21:22;16.00;99.90
15296;DHT22;7749;49.964;7.890;2022-09-27T11:40:45;15.80;99.90
15296;DHT22;7749;49.964;7.890;2022-09-27T11:46:18;14.40;99.90
15296;DHT22;7749;49.964;7.890;2022-09-27T11:54:44;14.60;99.90
15296;DHT22;7749;49.964;7.890;2022-09-27T11:57:24;15.30;99.90
15296;DHT22;7749;49.964;7.890;2022-09-27T12:00:08;15.70;99.90
15296;DHT22;7749;49.964;7.890;2022-09-27T12:05:59;15.30;99.90
15296;DHT22;7749;49.964;7.890;2022-09-27T12:14:01;15.40;99.90
15296;DHT22;7749;49.964;7.890;2022-09-27T12:16:31;15.20;99.90
15296;DHT22;7749;49.964;7.890;2022-09-27T12:19:00;15.30;99.90
15296;DHT22;7749;49.964;7.890;2022-09-27T12:21:30;15.30;99.90
15296;DHT22;7749;49.964;7.890;2022-09-27T12:24:00;14.50;99.90
15296;DHT22;7749;49.964;7.890;2022-09-27T12:26:42;14.00;99.90
15296;DHT22;7749;49.964;7.890;2022-09-27T12:32:08;13.50;99.90
15296;DHT22;7749;49.964;7.890;2022-09-27T12:39:56;13.00;99.90
15296;DHT22;7749;49.964;7.890;2022-09-27T12:42:33;12.90;99.90
15296;DHT22;7749;49.964;7.890;2022-09-27T12:45:03;12.80;99.90
15296;DHT22;7749;49.964;7.890;2022-09-27T12:50:36;13.10;99.90
15296;DHT22;7749;49.964;7.890;2022-09-27T12:53:21;13.50;99.90
15296;DHT22;7749;49.964;7.890;2022-09-27T13:07:08;16.50;99.90
15296;DHT22;7749;49.964;7.890;2022-09-27T13:12:29;16.30;99.90
15296;DHT22;7749;49.964;7.890;2022-09-27T13:15:13;16.40;99.90
15296;DHT22;7749;49.964;7.890;2022-09-27T13:22:54;17.30;99.90
15296;DHT22;7749;49.964;7.890;2022-09-27T13:25:50;17.80;99.90
15296;DHT22;7749;49.964;7.890;2022-09-27T13:30:56;17.20;99.90
15296;DHT22;7749;49.964;7.890;2022-09-27T13:47:36;14.70;99.90
15296;DHT22;7749;49.964;7.890;2022-09-27T13:50:22;14.40;99.90
15296;DHT22;7749;49.964;7.890;2022-09-27T13:55:39;14.40;99.90
15296;DHT22;7749;49.964;7.890;2022-09-27T14:01:15;14.40;99.90
15296;DHT22;7749;49.964;7.890;2022-09-27T14:03:58;14.50;99.90
15296;DHT22;7749;49.964;7.890;2022-09-27T14:06:31;14.40;99.90
15296;DHT22;7749;49.964;7.890;2022-09-27T14:09:06;14.40;99.90
15296;DHT22;7749;49.964;7.890;2022-09-27T14:11:42;14.30;99.90
15296;DHT22;7749;49.964;7.890;2022-09-27T14:14:16;14.30;99.90
15296;DHT22;7749;49.964;7.890;2022-09-27T14:16:46;14.10;99.90
15296;DHT22;7749;49.964;7.890;2022-09-27T14:19:17;14.10;99.90
15296;DHT22;7749;49.964;7.890;2022-09-27T14:21:46;13.50;99.90
15296;DHT22;7749;49.964;7.890;2022-09-27T14:24:27;13.40;99.90
15296;DHT22;7749;49.964;7.890;2022-09-27T14:27:27;13.20;99.90
15296;DHT22;7749;49.964;7.890;2022-09-27T14:30:17;13.10;99.90
15296;DHT22;7749;49.964;7.890;2022-09-27T14:32:53;13.30;99.90
15296;DHT22;7749;49.964;7.890;2022-09-27T14:35:30;13.20;99.90
15296;DHT22;7749;49.964;7.890;2022-09-27T14:38:38;13.20;99.90
15296;DHT22;7749;49.964;7.890;2022-09-27T14:41:26;13.10;99.90
15296;DHT22;7749;49.964;7.890;2022-09-27T14:44:01;13.20;99.90
15296;DHT22;7749;49.964;7.890;2022-09-27T14:46:30;13.40;99.90
15296;DHT22;7749;49.964;7.890;2022-09-27T14:49:11;13.40;99.90
15296;DHT22;7749;49.964;7.890;2022-09-27T14:51:40;13.50;99.90
15296;DHT22;7749;49.964;7.890;2022-09-27T14:54:22;13.70;99.90
15296;DHT22;7749;49.964;7.890;2022-09-27T14:56:53;13.80;99.90
15296;DHT22;7749;49.964;7.890;2022-09-27T14:59:28;13.90;99.90
15296;DHT22;7749;49.964;7.890;2022-09-27T15:02:08;14.20;99.90
15296;DHT22;7749;49.964;7.890;2022-09-27T15:04:36;14.40;99.90
15296;DHT22;7749;49.964;7.890;2022-09-27T15:07:04;14.80;99.90
15296;DHT22;7749;49.964;7.890;2022-09-27T15:09:32;15.20;99.90
15296;DHT22;7749;49.964;7.890;2022-09-27T15:12:00;15.40;99.90
15296;DHT22;7749;49.964;7.890;2022-09-27T15:14:32;15.50;99.90
15296;DHT22;7749;49.964;7.890;2022-09-27T15:17:04;15.30;99.90
15296;DHT22;7749;49.964;7.890;2022-09-27T15:19:32;15.00;99.90
15296;DHT22;7749;49.964;7.890;2022-09-27T15:22:31;14.90;99.90
15296;DHT22;7749;49.964;7.890;2022-09-27T15:25:06;14.80;99.90
15296;DHT22;7749;49.964;7.890;2022-09-27T15:27:48;14.40;99.90
15296;DHT22;7749;49.964;7.890;2022-09-27T15:30:19;14.00;99.90
15296;DHT22;7749;49.964;7.890;2022-09-27T15:32:53;13.60;99.90
15296;DHT22;7749;49.964;7.890;2022-09-27T15:35:25;13.40;99.90
15296;DHT22;7749;49.964;7.890;2022-09-27T15:43:39;13.10;99.90
15296;DHT22;7749;49.964;7.890;2022-09-27T15:46:42;13.30;99.90
15296;DHT22;7749;49.964;7.890;2022-09-27T15:49:20;13.30;99.90
15296;DHT22;7749;49.964;7.890;2022-09-27T15:51:50;13.00;99.90
15296;DHT22;7749;49.964;7.890;2022-09-27T15:54:23;13.00;99.90
15296;DHT22;7749;49.964;7.890;2022-09-27T15:56:52;13.10;99.90
15296;DHT22;7749;49.964;7.890;2022-09-27T15:59:28;13.00;99.90
15296;DHT22;7749;49.964;7.890;2022-09-27T16:02:01;12.90;99.90
15296;DHT22;7749;49.964;7.890;2022-09-27T16:04:34;13.20;99.90
15296;DHT22;7749;49.964;7.890;2022-09-27T16:07:04;13.20;99.90
15296;DHT22;7749;49.964;7.890;2022-09-27T16:09:35;13.00;99.90
15296;DHT22;7749;49.964;7.890;2022-09-27T16:12:03;13.10;99.90
15296;DHT22;7749;49.964;7.890;2022-09-27T16:14:31;13.20;99.90
15296;DHT22;7749;49.964;7.890;2022-09-27T16:16:59;13.20;99.90
15296;DHT22;7749;49.964;7.890;2022-09-27T16:19:26;13.10;99.90
15296;DHT22;7749;49.964;7.890;2022-09-27T16:21:54;13.10;99.90
15296;DHT22;7749;49.964;7.890;2022-09-27T16:24:22;12.90;99.90
15296;DHT22;7749;49.964;7.890;2022-09-27T16:26:51;12.70;99.90
15296;DHT22;7749;49.964;7.890;2022-09-27T16:29:19;12.60;99.90
15296;DHT22;7749;49.964;7.890;2022-09-27T16:31:46;12.60;99.90
15296;DHT22;7749;49.964;7.890;2022-09-27T16:34:14;12.60;99.90
15296;DHT22;7749;49.964;7.890;2022-09-27T16:36:42;12.60;99.90
15296;DHT22;7749;49.964;7.890;2022-09-27T16:39:11;12.60;99.90
15296;DHT22;7749;49.964;7.890;2022-09-27T16:41:40;12.30;99.90
15296;DHT22;7749;49.964;7.890;2022-09-27T16:44:09;12.20;99.90
15296;DHT22;7749;49.964;7.890;2022-09-27T16:46:41;12.20;99.90
15296;DHT22;7749;49.964;7.890;2022-09-27T16:49:09;12.30;99.90
15296;DHT22;7749;49.964;7.890;2022-09-27T16:51:57;12.10;99.90
15296;DHT22;7749;49.964;7.890;2022-09-27T16:54:29;12.10;99.90
15296;DHT22;7749;49.964;7.890;2022-09-27T16:56:57;12.20;99.90
15296;DHT22;7749;49.964;7.890;2022-09-27T16:59:25;12.00;99.90
15296;DHT22;7749;49.964;7.890;2022-09-27T17:01:54;11.90;99.90
15296;DHT22;7749;49.964;7.890;2022-09-27T17:04:26;11.90;99.90
15296;DHT22;7749;49.964;7.890;2022-09-27T17:06:55;11.80;99.90
15296;DHT22;7749;49.964;7.890;2022-09-27T17:09:23;11.80;99.90
15296;DHT22;7749;49.964;7.890;2022-09-27T17:11:51;11.80;99.90
15296;DHT22;7749;49.964;7.890;2022-09-27T17:14:19;11.70;99.90
15296;DHT22;7749;49.964;7.890;2022-09-27T17:16:47;11.70;99.90
15296;DHT22;7749;49.964;7.890;2022-09-27T17:19:15;11.70;99.90
15296;DHT22;7749;49.964;7.890;2022-09-27T17:21:45;11.60;99.90
15296;DHT22;7749;49.964;7.890;2022-09-27T17:24:13;11.50;99.90
15296;DHT22;7749;49.964;7.890;2022-09-27T17:26:41;11.50;99.90
15296;DHT22;7749;49.964;7.890;2022-09-27T17:29:10;11.40;99.90
15296;DHT22;7749;49.964;7.890;2022-09-27T17:31:39;11.30;99.90
15296;DHT22;7749;49.964;7.890;2022-09-27T17:34:10;11.20;99.90
15296;DHT22;7749;49.964;7.890;2022-09-27T17:36:40;11.10;99.90
15296;DHT22;7749;49.964;7.890;2022-09-27T17:39:13;11.10;99.90
15296;DHT22;7749;49.964;7.890;2022-09-27T17:41:44;10.90;99.90
15296;DHT22;7749;49.964;7.890;2022-09-27T17:44:13;11.00;99.90
15296;DHT22;7749;49.964;7.890;2022-09-27T17:46:41;10.80;99.90
15296;DHT22;7749;49.964;7.890;2022-09-27T17:49:10;10.80;99.90
15296;DHT22;7749;49.964;7.890;2022-09-27T17:51:57;10.70;99.90
15296;DHT22;7749;49.964;7.890;2022-09-27T17:54:25;10.70;99.90
15296;DHT22;7749;49.964;7.890;2022-09-27T17:56:54;10.70;99.90
15296;DHT22;7749;49.964;7.890;2022-09-27T17:59:23;10.70;99.90
15296;DHT22;7749;49.964;7.890;2022-09-27T18:02:01;10.70;99.90
15296;DHT22;7749;49.964;7.890;2022-09-27T18:04:30;10.70;99.90
15296;DHT22;7749;49.964;7.890;2022-09-27T18:06:58;10.70;99.90
15296;DHT22;7749;49.964;7.890;2022-09-27T18:09:33;10.70;99.90
15296;DHT22;7749;49.964;7.890;2022-09-27T18:12:01;10.60;99.90
15296;DHT22;7749;49.964;7.890;2022-09-27T18:14:28;10.60;99.90
15296;DHT22;7749;49.964;7.890;2022-09-27T18:16:58;10.60;99.90
15296;DHT22;7749;49.964;7.890;2022-09-27T18:19:26;10.60;99.90
15296;DHT22;7749;49.964;7.890;2022-09-27T18:21:53;10.50;99.90
15296;DHT22;7749;49.964;7.890;2022-09-27T18:24:21;10.40;99.90
15296;DHT22;7749;49.964;7.890;2022-09-27T18:26:49;10.30;99.90
15296;DHT22;7749;49.964;7.890;2022-09-27T18:29:17;10.30;99.90
15296;DHT22;7749;49.964;7.890;2022-09-27T18:31:45;10.20;99.90
15296;DHT22;7749;49.964;7.890;2022-09-27T18:34:16;10.20;99.90
15296;DHT22;7749;49.964;7.890;2022-09-27T18:36:45;10.10;99.90
15296;DHT22;7749;49.964;7.890;2022-09-27T18:39:15;10.10;99.90
15296;DHT22;7749;49.964;7.890;2022-09-27T18:41:46;10.10;99.90
15296;DHT22;7749;49.964;7.890;2022-09-27T18:44:17;10.00;99.90
15296;DHT22;7749;49.964;7.890;2022-09-27T18:46:46;10.00;99.90
15296;DHT22;7749;49.964;7.890;2022-09-27T18:49:20;10.00;99.90
15296;DHT22;7749;49.964;7.890;2022-09-27T18:51:58;9.90;99.90
15296;DHT22;7749;49.964;7.890;2022-09-27T18:54:25;9.80;99.90
15296;DHT22;7749;49.964;7.890;2022-09-27T18:56:53;9.80;99.90
15296;DHT22;7749;49.964;7.890;2022-09-27T18:59:21;9.80;99.90
15296;DHT22;7749;49.964;7.890;2022-09-27T19:01:50;9.90;99.90
15296;DHT22;7749;49.964;7.890;2022-09-27T19:04:20;9.80;99.90
15296;DHT22;7749;49.964;7.890;2022-09-27T19:06:53;9.70;99.90
15296;DHT22;7749;49.964;7.890;2022-09-27T19:09:21;9.60;99.90
15296;DHT22;7749;49.964;7.890;2022-09-27T19:11:52;9.50;99.90
15296;DHT22;7749;49.964;7.890;2022-09-27T19:14:20;9.50;99.90
15296;DHT22;7749;49.964;7.890;2022-09-27T19:16:49;9.40;99.90